Terminal Aerodrome Forecast
Issued by NWS Melbourne, FL

Home | Current Version | Previous Version | Text Only | Print | Product List | Glossary On
Versions: 1 2 3 4 5 6 7 8 9 10 11 12 13 14 15 16 17
000
FTUS42 KMLB 010538
TAFDAB
TAF
KDAB 010538Z 0106/0206 04006KT 4SM BR VCSH SCT020 OVC100
      TEMPO 0107/0109 BKN005 OVC010
     FM010900 04006KT 3SM BR OVC005
     FM011400 13006KT P6SM SCT006 BKN020
     FM011800 12008KT P6SM BKN035 PROB30 0118/0121 5SM SHRA BKN025
     FM020000 06003KT P6SM SCT020 BKN080
     FM020300 VRB03KT 5SM BR BKN015=

USA.gov is the U.S. government's official web portal to all federal, state and local government web resources and services.